createdAt,value
2022-08-22T00:00:01.791Z,20.91
2022-08-22T00:02:45.056Z,16.18
2022-08-22T00:02:55.977Z,18.37
2022-08-22T00:03:00.234Z,23.23
2022-08-22T00:03:12.285Z,16.81
2022-08-22T00:04:20.810Z,16.58
2022-08-22T00:05:42.566Z,19.23
2022-08-22T00:06:58.704Z,15.57
2022-08-22T00:08:13.364Z,17.56
2022-08-22T00:09:37.219Z,17.87
2022-08-22T00:10:55.324Z,19.52
2022-08-22T00:12:01.081Z,13.85
2022-08-22T00:13:13.164Z,18.59
2022-08-22T00:14:33.807Z,18.68
2022-08-22T00:15:45.731Z,20.69
2022-08-22T00:16:54.502Z,20.41
2022-08-22T00:18:21.662Z,16.92
2022-08-22T00:19:36.543Z,15.71
2022-08-22T00:20:48.192Z,20.97
2022-08-22T00:21:59.812Z,15.49
2022-08-22T00:23:24.090Z,16.94
2022-08-22T00:24:35.863Z,19.96
2022-08-22T00:25:41.713Z,17.98
2022-08-22T00:27:00.067Z,16.67
2022-08-22T00:28:11.967Z,23.34
2022-08-22T00:29:20.907Z,11.48
2022-08-22T00:30:25.655Z,15.47
2022-08-22T00:31:40.387Z,13.91
2022-08-22T00:32:49.129Z,18.24
2022-08-22T00:34:04.324Z,17.01
2022-08-22T00:35:18.968Z,17.04
2022-08-22T00:36:47.723Z,21.74
2022-08-22T00:39:30.374Z,20.76
2022-08-22T00:41:51.198Z,19.42
2022-08-22T00:43:29.192Z,17.06
2022-08-22T00:44:56.056Z,14.36
2022-08-22T00:46:07.934Z,13.78
2022-08-22T00:47:28.579Z,13.81
2022-08-22T00:48:54.168Z,20.68
2022-08-22T00:50:17.142Z,9.18
2022-08-22T00:51:38.418Z,16.74
2022-08-22T00:52:59.396Z,15.07
2022-08-22T00:54:20.606Z,14.25
2022-08-22T00:55:29.016Z,19.51
2022-08-22T00:56:36.936Z,17.12
2022-08-22T00:58:15.016Z,16.21
2022-08-22T00:59:38.534Z,17.42
2022-08-22T01:00:47.811Z,15.16
2022-08-22T01:02:11.884Z,16.87
2022-08-22T01:03:46.829Z,14.05
2022-08-22T01:04:58.277Z,15.13
2022-08-22T01:06:27.054Z,18.01
2022-08-22T01:07:42.095Z,17.73
2022-08-22T01:09:10.812Z,13.69
2022-08-22T01:10:33.688Z,20.69
2022-08-22T01:12:00.955Z,14.26
2022-08-22T01:13:16.070Z,20.41
2022-08-22T01:14:34.834Z,17.84
2022-08-22T01:15:38.758Z,16.58
2022-08-22T01:17:08.077Z,18.49
2022-08-22T01:18:30.700Z,17.44
2022-08-22T01:19:51.696Z,15.89
2022-08-22T01:21:20.846Z,23.01
2022-08-22T01:22:41.920Z,15.85
2022-08-22T01:24:21.731Z,17.68
2022-08-22T01:25:41.688Z,20.89
2022-08-22T01:27:12.030Z,20.11
2022-08-22T01:28:23.984Z,18.39
2022-08-22T01:29:43.573Z,14.57
2022-08-22T01:31:25.972Z,15.60
2022-08-22T01:32:56.888Z,18.86
2022-08-22T01:34:34.190Z,16.15
2022-08-22T01:36:17.310Z,19.81
2022-08-22T01:37:55.273Z,16.60
2022-08-22T01:39:36.917Z,16.94
2022-08-22T01:41:00.453Z,13.61
2022-08-22T01:42:16.267Z,16.01
2022-08-22T01:43:58.779Z,16.09
2022-08-22T01:44:54.308Z,13.77
2022-08-22T01:46:26.264Z,15.42
2022-08-22T01:47:41.361Z,18.79
2022-08-22T01:48:59.395Z,17.81
2022-08-22T01:51:24.450Z,21.91
2022-08-22T01:52:48.741Z,16.48
2022-08-22T01:54:00.968Z,15.07
2022-08-22T01:55:26.529Z,15.59
2022-08-22T01:56:35.685Z,19.57
2022-08-22T01:58:03.291Z,19.58
2022-08-22T01:59:10.910Z,13.83
2022-08-22T02:00:17.586Z,17.44
2022-08-22T02:01:30.881Z,9.39
2022-08-22T02:03:00.608Z,16.29
2022-08-22T02:04:15.704Z,13.31
2022-08-22T02:05:27.771Z,12.46
2022-08-22T02:06:45.599Z,12.76
2022-08-22T02:08:06.794Z,18.04
2022-08-22T02:09:29.348Z,14.93
2022-08-22T02:10:44.367Z,16.19
2022-08-22T02:11:50.236Z,14.51
2022-08-22T02:13:58.950Z,16.46
2022-08-22T02:16:45.561Z,13.23
2022-08-22T02:19:40.215Z,14.50
2022-08-22T02:21:15.381Z,12.43
2022-08-22T02:24:02.617Z,17.74
2022-08-22T02:26:47.060Z,16.04
2022-08-22T02:27:58.797Z,13.48
2022-08-22T02:29:16.736Z,12.64
2022-08-22T02:30:23.848Z,14.77
2022-08-22T02:31:38.708Z,15.31
2022-08-22T02:32:44.544Z,15.98
2022-08-22T02:33:58.660Z,12.84
2022-08-22T02:35:19.665Z,17.78
2022-08-22T02:36:31.530Z,18.38
2022-08-22T02:37:49.129Z,13.74
2022-08-22T02:39:13.837Z,15.13
2022-08-22T02:40:29.347Z,14.76
2022-08-22T02:41:40.913Z,16.04
2022-08-22T02:42:52.899Z,12.64
2022-08-22T02:43:58.639Z,10.82
2022-08-22T02:45:07.296Z,8.12
2022-08-22T02:46:31.692Z,14.56
2022-08-22T02:47:43.513Z,16.49
2022-08-22T02:49:14.016Z,13.13
2022-08-22T02:50:40.154Z,12.55
2022-08-22T02:51:54.875Z,13.34
2022-08-22T02:53:06.589Z,11.97
2022-08-22T02:54:23.583Z,17.28
2022-08-22T02:55:38.532Z,16.71
2022-08-22T02:56:47.753Z,10.91
2022-08-22T02:58:02.506Z,12.33
2022-08-22T02:59:33.044Z,13.38
2022-08-22T03:00:51.259Z,13.00
2022-08-22T03:01:55.244Z,13.94
2022-08-22T03:03:17.725Z,12.34
2022-08-22T03:04:26.683Z,17.42
2022-08-22T03:05:38.121Z,10.52
2022-08-22T03:06:44.157Z,15.49
2022-08-22T03:07:50.014Z,13.40
2022-08-22T03:10:21.471Z,13.22
2022-08-22T03:11:30.315Z,15.77
2022-08-22T03:12:57.436Z,13.89
2022-08-22T03:15:21.090Z,13.21
2022-08-22T03:16:27.793Z,15.17
2022-08-22T03:17:39.802Z,11.08
2022-08-22T03:18:57.669Z,11.70
2022-08-22T03:20:03.507Z,13.19
2022-08-22T03:21:18.834Z,17.45
2022-08-22T03:22:25.305Z,10.26
2022-08-22T03:23:49.692Z,14.24
2022-08-22T03:25:15.524Z,12.39
2022-08-22T03:26:39.212Z,8.53
2022-08-22T03:27:49.862Z,14.17
2022-08-22T03:29:02.574Z,11.61
2022-08-22T03:30:14.382Z,8.74
2022-08-22T03:31:23.340Z,10.79
2022-08-22T03:32:49.188Z,10.61
2022-08-22T03:34:23.822Z,10.93
2022-08-22T03:35:32.926Z,14.02
2022-08-22T03:36:35.985Z,12.70
2022-08-22T03:37:43.596Z,18.15
2022-08-22T03:38:55.138Z,9.76
2022-08-22T03:40:01.027Z,10.82
2022-08-22T03:41:33.129Z,11.89
2022-08-22T03:42:45.067Z,14.41
2022-08-22T03:44:10.884Z,10.82
2022-08-22T03:45:45.671Z,12.83
2022-08-22T03:47:08.221Z,12.51
2022-08-22T03:48:25.859Z,11.89
2022-08-22T03:49:51.019Z,16.77
2022-08-22T03:51:06.247Z,13.57
2022-08-22T03:52:24.242Z,14.29
2022-08-22T03:55:59.018Z,14.37
2022-08-22T03:57:10.937Z,14.46
2022-08-22T03:58:28.352Z,11.33
2022-08-22T03:59:52.390Z,14.44
2022-08-22T04:01:31.930Z,11.28
2022-08-22T04:02:49.480Z,11.08
2022-08-22T04:04:12.074Z,12.90
2022-08-22T04:05:34.776Z,14.81
2022-08-22T04:06:53.763Z,12.39
2022-08-22T04:08:32.350Z,12.06
2022-08-22T04:09:56.133Z,10.35
2022-08-22T04:11:36.912Z,11.96
2022-08-22T04:13:17.968Z,13.57
2022-08-22T04:14:52.962Z,19.40
2022-08-22T04:16:08.183Z,14.74
2022-08-22T04:17:39.745Z,9.24
2022-08-22T04:19:07.922Z,11.88
2022-08-22T04:20:34.072Z,10.13
2022-08-22T04:21:57.085Z,13.55
2022-08-22T04:23:31.789Z,13.42
2022-08-22T04:24:57.044Z,12.69
2022-08-22T04:26:12.121Z,10.34
2022-08-22T04:27:33.167Z,10.84
2022-08-22T04:28:39.543Z,15.47
2022-08-22T04:29:51.558Z,14.79
2022-08-22T04:30:57.627Z,12.57
2022-08-22T04:32:23.628Z,9.32
2022-08-22T04:33:38.349Z,14.87
2022-08-22T04:34:56.772Z,12.41
2022-08-22T04:36:05.696Z,13.57
2022-08-22T04:37:11.535Z,11.62
2022-08-22T04:38:35.724Z,10.51
2022-08-22T04:39:41.636Z,10.25
2022-08-22T04:40:53.748Z,13.22
2022-08-22T04:42:34.875Z,11.23
2022-08-22T04:43:52.087Z,14.47
2022-08-22T04:45:13.524Z,11.45
2022-08-22T04:46:19.889Z,13.10
2022-08-22T04:47:31.514Z,10.13
2022-08-22T04:48:40.658Z,12.10
2022-08-22T04:51:14.381Z,11.58
2022-08-22T04:52:34.768Z,10.91
2022-08-22T04:53:49.948Z,9.92
2022-08-22T04:55:18.671Z,10.41
2022-08-22T04:56:24.894Z,10.71
2022-08-22T04:57:33.656Z,9.89
2022-08-22T04:58:51.696Z,13.30
2022-08-22T05:00:00.669Z,9.93
2022-08-22T05:01:18.788Z,12.51
2022-08-22T05:02:24.438Z,10.92
2022-08-22T05:03:29.213Z,15.33
2022-08-22T05:04:53.466Z,10.28
2022-08-22T05:06:00.362Z,12.18
2022-08-22T05:07:12.131Z,10.57
2022-08-22T05:08:18.012Z,9.65
2022-08-22T05:09:24.949Z,10.97
2022-08-22T05:11:46.409Z,12.22
2022-08-22T05:12:52.387Z,7.57
2022-08-22T05:13:58.161Z,9.86
2022-08-22T05:15:16.054Z,10.83
2022-08-22T05:16:23.972Z,7.96
2022-08-22T05:17:29.617Z,6.87
2022-08-22T05:18:35.470Z,13.10
2022-08-22T05:19:41.339Z,9.60
2022-08-22T05:20:47.239Z,10.17
2022-08-22T05:21:51.863Z,14.38
2022-08-22T05:22:58.091Z,15.44
2022-08-22T05:24:11.053Z,10.22
2022-08-22T05:25:17.002Z,11.76
2022-08-22T05:26:21.111Z,8.50
2022-08-22T05:27:27.200Z,11.04
2022-08-22T05:28:34.817Z,15.93
2022-08-22T05:29:40.657Z,11.53
2022-08-22T05:30:46.600Z,14.90
2022-08-22T05:31:58.182Z,8.77
2022-08-22T05:33:20.614Z,11.17
2022-08-22T05:34:26.449Z,15.92
2022-08-22T05:35:35.341Z,12.41
2022-08-22T05:36:42.372Z,9.71
2022-08-22T05:37:49.144Z,17.14
2022-08-22T05:38:55.015Z,10.98
2022-08-22T05:39:59.875Z,9.56
2022-08-22T05:41:08.752Z,10.65
2022-08-22T05:42:17.302Z,11.02
2022-08-22T05:43:21.499Z,9.99
2022-08-22T05:44:29.560Z,10.05
2022-08-22T05:45:34.859Z,13.03
2022-08-22T05:46:46.506Z,16.49
2022-08-22T05:47:52.394Z,15.77
2022-08-22T05:48:58.298Z,19.27
2022-08-22T05:50:19.465Z,11.16
2022-08-22T05:51:25.471Z,11.68
2022-08-22T05:52:34.774Z,14.65
2022-08-22T05:53:40.517Z,10.14
2022-08-22T05:54:52.290Z,13.22
2022-08-22T05:56:04.151Z,12.61
2022-08-22T05:57:15.673Z,15.39
2022-08-22T05:58:28.490Z,13.06
2022-08-22T05:59:35.972Z,11.48
2022-08-22T06:00:41.955Z,10.21
2022-08-22T06:02:09.369Z,14.77
2022-08-22T06:03:36.482Z,13.65
2022-08-22T06:04:51.268Z,10.47
2022-08-22T06:05:57.010Z,12.89
2022-08-22T06:07:30.057Z,11.02
2022-08-22T06:08:39.188Z,11.20
2022-08-22T06:09:45.149Z,12.52
2022-08-22T06:10:50.642Z,10.21
2022-08-22T06:11:56.473Z,11.00
2022-08-22T06:14:51.809Z,12.81
2022-08-22T06:16:04.265Z,11.79
2022-08-22T06:17:13.164Z,13.33
2022-08-22T06:18:19.029Z,11.91
2022-08-22T06:19:21.626Z,11.97
2022-08-22T06:20:44.620Z,11.53
2022-08-22T06:21:49.839Z,13.30
2022-08-22T06:22:58.734Z,9.99
2022-08-22T06:24:03.042Z,16.28
2022-08-22T06:25:17.969Z,18.66
2022-08-22T06:26:21.534Z,15.18
2022-08-22T06:27:26.586Z,19.57
2022-08-22T06:28:37.622Z,12.67
2022-08-22T06:29:45.999Z,15.08
2022-08-22T06:30:51.476Z,19.52
2022-08-22T06:31:55.973Z,14.98
2022-08-22T06:33:02.091Z,11.85
2022-08-22T06:34:10.949Z,15.93
2022-08-22T06:35:16.823Z,15.32
2022-08-22T06:36:22.523Z,15.89
2022-08-22T06:37:28.327Z,16.78
2022-08-22T06:38:33.392Z,12.29
2022-08-22T06:39:39.249Z,14.58
2022-08-22T06:40:42.616Z,14.93
2022-08-22T06:41:48.540Z,12.10
2022-08-22T06:42:52.418Z,10.37
2022-08-22T06:43:56.838Z,11.97
2022-08-22T06:45:05.339Z,12.62
2022-08-22T06:46:10.480Z,9.18
2022-08-22T06:47:16.353Z,9.46
2022-08-22T06:48:21.659Z,10.84
2022-08-22T06:49:26.867Z,12.42
2022-08-22T06:50:39.150Z,14.09
2022-08-22T06:51:43.059Z,11.79
2022-08-22T06:53:06.911Z,11.41
2022-08-22T06:54:12.941Z,12.03
2022-08-22T06:55:16.286Z,9.57
2022-08-22T06:56:26.738Z,10.80
2022-08-22T06:57:38.744Z,14.04
2022-08-22T06:58:43.932Z,11.52
2022-08-22T06:59:47.428Z,12.65
2022-08-22T07:01:05.701Z,11.12
2022-08-22T07:02:23.530Z,16.06
2022-08-22T07:03:35.201Z,12.01
2022-08-22T07:04:38.030Z,12.19
2022-08-22T07:05:42.477Z,8.58
2022-08-22T07:06:48.553Z,7.47
2022-08-22T07:07:51.977Z,8.63
2022-08-22T07:08:54.998Z,9.29
2022-08-22T07:09:57.546Z,8.83
2022-08-22T07:11:15.791Z,11.10
2022-08-22T07:12:21.126Z,9.80
2022-08-22T07:13:26.390Z,10.93
2022-08-22T07:14:32.239Z,12.35
2022-08-22T07:15:37.994Z,10.13
2022-08-22T07:16:47.603Z,7.93
2022-08-22T07:17:53.199Z,12.22
2022-08-22T07:18:56.144Z,20.16
2022-08-22T07:20:11.129Z,12.64
2022-08-22T07:21:23.708Z,9.63
2022-08-22T07:22:32.179Z,15.17
2022-08-22T07:23:37.656Z,12.49
2022-08-22T07:24:43.495Z,17.28
2022-08-22T07:26:15.905Z,10.94
2022-08-22T07:27:41.778Z,18.76
2022-08-22T07:30:16.429Z,15.48
2022-08-22T07:31:33.122Z,13.63
2022-08-22T07:32:48.708Z,13.51
2022-08-22T07:33:54.574Z,13.61
2022-08-22T07:35:03.388Z,17.08
2022-08-22T07:36:41.957Z,8.91
2022-08-22T07:37:53.955Z,14.27
2022-08-22T07:39:18.130Z,17.22
2022-08-22T07:40:40.876Z,11.84
2022-08-22T07:41:54.428Z,18.13
2022-08-22T07:43:22.217Z,19.60
2022-08-22T07:44:27.982Z,17.76
2022-08-22T07:45:39.718Z,12.66
2022-08-22T07:46:54.897Z,15.36
2022-08-22T07:48:26.191Z,16.79
2022-08-22T07:49:30.050Z,21.49
2022-08-22T07:50:42.241Z,16.43
2022-08-22T07:53:02.124Z,18.42
2022-08-22T07:55:23.960Z,18.32
2022-08-22T07:56:30.397Z,13.31
2022-08-22T07:57:36.257Z,14.87
2022-08-22T07:58:40.882Z,9.86
2022-08-22T07:59:52.958Z,14.32
2022-08-22T08:00:56.671Z,12.69
2022-08-22T08:02:03.472Z,20.51
2022-08-22T08:03:08.672Z,12.04
2022-08-22T08:04:14.544Z,14.39
2022-08-22T08:05:18.156Z,14.38
2022-08-22T08:06:24.245Z,12.28
2022-08-22T08:07:28.931Z,10.42
2022-08-22T08:09:59.007Z,10.82
2022-08-22T08:11:02.950Z,21.62
2022-08-22T08:12:07.749Z,13.16
2022-08-22T08:13:16.678Z,14.42
2022-08-22T08:14:21.397Z,14.53
2022-08-22T08:15:24.995Z,12.95
2022-08-22T08:16:31.028Z,19.62
2022-08-22T08:17:35.446Z,10.61
2022-08-22T08:18:39.065Z,17.29
2022-08-22T08:19:42.841Z,20.96
2022-08-22T08:20:51.668Z,15.46
2022-08-22T08:21:55.937Z,8.72
2022-08-22T08:22:59.138Z,12.00
2022-08-22T08:24:02.733Z,16.63
2022-08-22T08:25:07.447Z,23.62
2022-08-22T08:26:16.450Z,17.55
2022-08-22T08:27:25.107Z,24.18
2022-08-22T08:28:28.506Z,25.13
2022-08-22T08:29:31.726Z,21.76
2022-08-22T08:30:37.929Z,12.67
2022-08-22T08:31:43.313Z,16.21
2022-08-22T08:32:50.737Z,18.66
2022-08-22T08:35:31.071Z,13.13
2022-08-22T08:36:38.918Z,14.23
2022-08-22T08:39:14.957Z,16.46
2022-08-22T08:41:28.689Z,12.41
2022-08-22T08:42:51.445Z,15.57
2022-08-22T08:44:18.432Z,19.18
2022-08-22T08:45:39.519Z,13.40
2022-08-22T08:47:06.511Z,15.65
2022-08-22T08:48:41.679Z,13.34
2022-08-22T08:50:21.746Z,19.03
2022-08-22T08:51:46.192Z,14.41
2022-08-22T08:52:54.988Z,17.97
2022-08-22T08:54:23.435Z,20.07
2022-08-22T08:55:50.865Z,27.00
2022-08-22T08:57:11.902Z,14.96
2022-08-22T08:58:34.442Z,20.56
2022-08-22T08:59:46.158Z,17.40
2022-08-22T09:00:52.274Z,15.38
2022-08-22T09:02:07.270Z,16.66
2022-08-22T09:03:31.319Z,11.34
2022-08-22T09:04:55.008Z,10.63
2022-08-22T09:06:13.111Z,14.33
2022-08-22T09:07:40.585Z,15.14
2022-08-22T09:08:56.056Z,13.05
2022-08-22T09:10:32.142Z,15.14
2022-08-22T09:11:56.303Z,13.89
2022-08-22T09:13:26.195Z,12.91
2022-08-22T09:14:47.581Z,15.11
2022-08-22T09:17:28.920Z,15.24
2022-08-22T09:19:00.953Z,11.06
2022-08-22T09:20:42.627Z,14.88
2022-08-22T09:21:49.178Z,17.74
2022-08-22T09:23:11.010Z,15.64
2022-08-22T09:24:33.396Z,15.76
2022-08-22T09:27:13.447Z,18.17
2022-08-22T09:28:23.573Z,9.86
2022-08-22T09:31:22.348Z,15.24
2022-08-22T09:32:16.921Z,12.48
2022-08-22T09:33:23.749Z,16.91
2022-08-22T09:34:30.809Z,17.09
2022-08-22T09:35:42.438Z,14.44
2022-08-22T09:36:48.924Z,13.84
2022-08-22T09:38:14.559Z,16.06
2022-08-22T09:39:23.537Z,17.89
2022-08-22T09:40:15.989Z,10.88
2022-08-22T09:40:36.122Z,18.26
2022-08-22T09:41:46.201Z,17.02
2022-08-22T09:43:06.193Z,14.03
2022-08-22T09:44:15.614Z,11.11
2022-08-22T09:45:33.437Z,13.48
2022-08-22T09:46:54.547Z,16.97
2022-08-22T09:48:14.188Z,14.97
2022-08-22T09:49:21.150Z,12.28
2022-08-22T09:50:39.951Z,14.35
2022-08-22T09:52:14.297Z,16.64
2022-08-22T09:53:19.491Z,21.24
2022-08-22T09:54:49.527Z,14.94
2022-08-22T09:55:58.136Z,18.19
2022-08-22T09:57:07.160Z,18.72
2022-08-22T09:58:15.984Z,17.61
2022-08-22T09:59:38.395Z,12.22
2022-08-22T10:00:55.139Z,9.27
2022-08-22T10:02:07.348Z,19.44
2022-08-22T10:03:20.950Z,22.60
2022-08-22T10:04:33.087Z,17.57
2022-08-22T10:05:46.920Z,21.99
2022-08-22T10:07:14.143Z,16.74
2022-08-22T10:08:26.546Z,15.28
2022-08-22T10:09:41.352Z,20.28
2022-08-22T10:10:54.973Z,17.99
2022-08-22T10:13:26.921Z,18.38
2022-08-22T10:14:50.454Z,17.68
2022-08-22T10:15:56.854Z,19.43
2022-08-22T10:17:09.355Z,21.74
2022-08-22T10:18:24.340Z,21.71
2022-08-22T10:19:38.205Z,22.57
2022-08-22T10:20:47.084Z,24.27
2022-08-22T10:22:20.629Z,27.23
2022-08-22T10:25:10.757Z,21.98
2022-08-22T10:26:26.090Z,27.68
2022-08-22T10:27:56.249Z,18.18
2022-08-22T10:29:17.375Z,19.19
2022-08-22T10:30:23.540Z,31.09
2022-08-22T10:31:29.543Z,23.12
2022-08-22T10:32:50.231Z,27.66
2022-08-22T10:34:15.764Z,16.77
2022-08-22T10:35:44.562Z,18.16
2022-08-22T10:37:10.292Z,22.93
2022-08-22T10:38:22.413Z,30.96
2022-08-22T10:41:10.572Z,33.54
2022-08-22T10:42:31.219Z,27.87
2022-08-22T10:43:41.413Z,28.53
2022-08-22T10:44:56.604Z,38.76
2022-08-22T10:46:06.644Z,37.56
2022-08-22T10:47:15.728Z,26.33
2022-08-22T10:48:35.463Z,36.95
2022-08-22T10:49:44.627Z,37.52
2022-08-22T10:50:53.593Z,35.52
2022-08-22T10:52:14.816Z,30.83
2022-08-22T10:53:16.171Z,23.91
2022-08-22T10:54:51.225Z,31.94
2022-08-22T10:55:57.143Z,39.01
2022-08-22T10:57:09.353Z,41.28
2022-08-22T10:58:27.324Z,42.29
2022-08-22T11:00:58.713Z,37.55
2022-08-22T11:02:13.684Z,31.99
2022-08-22T11:03:23.321Z,37.47
2022-08-22T11:04:30.273Z,37.27
2022-08-22T11:05:36.061Z,34.91
2022-08-22T11:06:51.068Z,42.41
2022-08-22T11:08:21.399Z,41.78
2022-08-22T11:09:28.091Z,32.41
2022-08-22T11:10:58.886Z,35.03
2022-08-22T11:12:08.952Z,54.89
2022-08-22T11:13:32.844Z,40.78
2022-08-22T11:14:50.917Z,40.11
2022-08-22T11:16:13.479Z,42.82
2022-08-22T11:17:34.605Z,42.81
2022-08-22T11:19:02.112Z,45.50
2022-08-22T11:20:14.233Z,51.63
2022-08-22T11:22:48.253Z,41.11
2022-08-22T11:23:57.504Z,32.54
2022-08-22T11:25:08.240Z,47.94
2022-08-22T11:29:14.500Z,43.01
2022-08-22T11:30:44.998Z,41.42
2022-08-22T11:31:51.662Z,46.36
2022-08-22T11:33:19.591Z,54.83
2022-08-22T11:34:25.674Z,40.63
2022-08-22T11:35:40.786Z,40.22
2022-08-22T11:36:53.563Z,41.73
2022-08-22T11:38:05.521Z,33.23
2022-08-22T11:39:36.158Z,31.24
2022-08-22T11:40:49.898Z,31.17
2022-08-22T11:42:00.672Z,48.87
2022-08-22T11:43:32.814Z,38.19
2022-08-22T11:44:53.298Z,38.09
2022-08-22T11:45:59.316Z,38.99
2022-08-22T11:47:05.944Z,35.94
2022-08-22T11:48:41.068Z,42.01
2022-08-22T11:50:13.314Z,31.15
2022-08-22T11:51:26.879Z,46.30
2022-08-22T11:52:51.938Z,39.77
2022-08-22T11:54:14.170Z,47.18
2022-08-22T11:55:34.864Z,32.86
2022-08-22T11:56:41.667Z,41.08
2022-08-22T11:57:48.963Z,38.78
2022-08-22T11:59:01.757Z,40.58
2022-08-22T12:00:23.321Z,38.56
2022-08-22T12:01:39.959Z,40.83
2022-08-22T12:02:58.283Z,44.24
2022-08-22T12:04:13.512Z,42.78
2022-08-22T12:05:24.635Z,44.09
2022-08-22T12:06:49.851Z,44.67
2022-08-22T12:08:02.088Z,33.58
2022-08-22T12:09:11.597Z,37.23
2022-08-22T12:10:17.960Z,45.98
2022-08-22T12:11:26.828Z,35.99
2022-08-22T12:12:38.852Z,36.31
2022-08-22T12:14:02.458Z,41.94
2022-08-22T12:15:16.658Z,43.27
2022-08-22T12:16:45.905Z,45.19
2022-08-22T12:18:10.408Z,45.97
2022-08-22T12:19:25.717Z,37.64
2022-08-22T12:20:41.047Z,43.64
2022-08-22T12:22:24.390Z,54.42
2022-08-22T12:23:49.715Z,57.06
2022-08-22T12:25:08.711Z,45.32
2022-08-22T12:26:22.071Z,50.92
2022-08-22T12:27:55.414Z,32.99
2022-08-22T12:29:33.430Z,43.22
2022-08-22T12:32:10.407Z,50.17
2022-08-22T12:33:25.389Z,45.37
2022-08-22T12:34:41.621Z,43.24
2022-08-22T12:35:56.512Z,39.52
2022-08-22T12:37:17.990Z,44.33
2022-08-22T12:38:37.435Z,36.27
2022-08-22T12:39:41.261Z,49.48
2022-08-22T12:41:14.545Z,54.26
2022-08-22T12:42:48.255Z,37.75
2022-08-22T12:44:03.105Z,31.59
2022-08-22T12:45:35.213Z,37.59
2022-08-22T12:46:55.303Z,32.89
2022-08-22T12:48:16.031Z,32.82
2022-08-22T12:49:40.001Z,43.91
2022-08-22T12:51:17.484Z,29.86
2022-08-22T12:52:37.264Z,36.43
2022-08-22T12:54:07.205Z,38.69
2022-08-22T12:55:25.780Z,30.37
2022-08-22T12:56:34.562Z,30.22
2022-08-22T12:57:44.125Z,31.44
2022-08-22T12:59:09.540Z,32.61
2022-08-22T13:00:22.986Z,30.33
2022-08-22T13:01:33.742Z,32.26
2022-08-22T13:02:36.029Z,28.18
2022-08-22T13:03:50.817Z,30.28
2022-08-22T13:04:59.756Z,30.43
2022-08-22T13:06:05.550Z,35.53
2022-08-22T13:07:19.671Z,31.16
2022-08-22T13:08:34.218Z,27.54
2022-08-22T13:09:39.883Z,40.57
2022-08-22T13:10:53.586Z,26.89
2022-08-22T13:12:06.516Z,41.04
2022-08-22T13:13:15.416Z,35.76
2022-08-22T13:14:25.902Z,38.34
2022-08-22T13:15:41.914Z,27.14
2022-08-22T13:16:48.907Z,29.68
2022-08-22T13:17:52.535Z,33.01
2022-08-22T13:19:07.739Z,25.93
2022-08-22T13:20:16.399Z,32.06
2022-08-22T13:21:31.999Z,18.24
2022-08-22T13:22:36.431Z,29.93
2022-08-22T13:23:46.712Z,27.57
2022-08-22T13:24:58.261Z,25.39
2022-08-22T13:26:33.178Z,25.85
2022-08-22T13:27:27.014Z,26.63
2022-08-22T13:28:33.776Z,21.43
2022-08-22T13:29:44.223Z,17.29
2022-08-22T13:30:48.500Z,28.91
2022-08-22T13:31:55.161Z,33.55
2022-08-22T13:34:30.398Z,30.39
2022-08-22T13:35:37.220Z,24.69
2022-08-22T13:36:51.582Z,28.31
2022-08-22T13:37:53.398Z,21.34
2022-08-22T13:39:05.465Z,23.33
2022-08-22T13:40:30.417Z,28.00
2022-08-22T13:41:39.183Z,23.43
2022-08-22T13:42:47.878Z,26.09
2022-08-22T13:44:10.599Z,22.47
2022-08-22T13:45:22.803Z,23.77
2022-08-22T13:46:28.750Z,27.19
2022-08-22T13:47:34.913Z,29.44
2022-08-22T13:48:49.705Z,28.89
2022-08-22T13:50:04.717Z,17.10
2022-08-22T13:51:17.867Z,25.21
2022-08-22T13:52:46.023Z,25.54
2022-08-22T13:54:00.933Z,23.67
2022-08-22T13:55:19.700Z,22.89
2022-08-22T13:56:26.017Z,32.54
2022-08-22T13:57:43.693Z,23.55
2022-08-22T13:58:50.004Z,28.04
2022-08-22T14:00:08.014Z,26.76
2022-08-22T14:01:25.426Z,29.76
2022-08-22T14:02:37.160Z,22.18
2022-08-22T14:03:49.130Z,29.01
2022-08-22T14:04:54.284Z,30.54
2022-08-22T14:06:32.388Z,23.51
2022-08-22T14:07:07.610Z,23.51
2022-08-22T14:08:19.654Z,24.56
2022-08-22T14:09:37.297Z,34.23
2022-08-22T14:10:43.989Z,25.43
2022-08-22T14:11:56.988Z,29.86
2022-08-22T14:13:12.822Z,29.85
2022-08-22T14:14:28.936Z,27.43
2022-08-22T14:15:44.692Z,29.85
2022-08-22T14:16:48.818Z,31.97
2022-08-22T14:17:54.599Z,22.74
2022-08-22T14:19:06.851Z,23.96
2022-08-22T14:20:13.764Z,23.02
2022-08-22T14:21:21.577Z,31.44
2022-08-22T14:22:31.736Z,27.21
2022-08-22T14:23:31.739Z,34.29
2022-08-22T14:24:46.122Z,29.94
2022-08-22T14:25:49.283Z,62.41
2022-08-22T14:26:57.867Z,28.04
2022-08-22T14:28:03.210Z,27.57
2022-08-22T14:30:24.571Z,25.61
2022-08-22T14:31:29.281Z,20.24
2022-08-22T14:32:41.811Z,22.76
2022-08-22T14:33:59.999Z,22.00
2022-08-22T14:35:35.156Z,26.86
2022-08-22T14:36:59.529Z,28.16
2022-08-22T14:38:17.497Z,24.60
2022-08-22T14:39:29.155Z,44.12
2022-08-22T14:40:35.838Z,24.00
2022-08-22T14:41:55.765Z,21.10
2022-08-22T14:42:57.217Z,18.75
2022-08-22T14:44:03.101Z,26.11
2022-08-22T14:45:21.778Z,27.22
2022-08-22T14:46:28.241Z,24.54
2022-08-22T14:47:55.187Z,27.80
2022-08-22T14:48:46.016Z,20.34
2022-08-22T14:49:55.693Z,24.92
2022-08-22T14:51:04.193Z,22.48
2022-08-22T14:52:10.352Z,21.48
2022-08-22T14:53:30.422Z,25.66
2022-08-22T14:54:35.288Z,20.20
2022-08-22T14:55:38.945Z,24.21
2022-08-22T14:56:45.118Z,25.71
2022-08-22T14:57:53.975Z,41.08
2022-08-22T14:59:02.642Z,19.96
2022-08-22T15:00:06.444Z,21.36
2022-08-22T15:01:11.881Z,22.26
2022-08-22T15:02:17.717Z,20.18
2022-08-22T15:03:23.737Z,23.97
2022-08-22T15:04:35.359Z,26.62
2022-08-22T15:05:50.053Z,19.47
2022-08-22T15:06:57.875Z,20.98
2022-08-22T15:08:00.626Z,19.72
2022-08-22T15:09:09.877Z,21.73
2022-08-22T15:10:25.749Z,21.38
2022-08-22T15:11:42.418Z,22.67
2022-08-22T15:12:49.724Z,23.36
2022-08-22T15:14:12.557Z,25.08
2022-08-22T15:15:49.833Z,26.21
2022-08-22T15:16:53.169Z,25.95
2022-08-22T15:17:55.544Z,21.52
2022-08-22T15:18:57.975Z,19.19
2022-08-22T15:20:12.951Z,19.69
2022-08-22T15:21:28.126Z,22.11
2022-08-22T15:22:30.923Z,19.03
2022-08-22T15:23:45.069Z,20.15
2022-08-22T15:24:43.398Z,21.42
2022-08-22T15:26:05.367Z,28.79
2022-08-22T15:27:08.362Z,26.34
2022-08-22T15:28:20.454Z,26.07
2022-08-22T15:29:30.296Z,25.11
2022-08-22T15:30:47.678Z,16.53
2022-08-22T15:31:56.613Z,20.89
2022-08-22T15:33:14.143Z,23.67
2022-08-22T15:34:35.071Z,22.33
2022-08-22T15:35:40.338Z,22.26
2022-08-22T15:38:30.377Z,19.27
2022-08-22T15:39:38.967Z,25.29
2022-08-22T15:40:45.736Z,19.17
2022-08-22T15:41:48.777Z,23.00
2022-08-22T15:42:52.966Z,23.82
2022-08-22T15:44:17.211Z,29.76
2022-08-22T15:46:44.993Z,21.77
2022-08-22T15:47:52.357Z,26.84
2022-08-22T15:49:05.435Z,23.69
2022-08-22T15:50:14.758Z,25.99
2022-08-22T15:51:39.367Z,17.71
2022-08-22T15:53:20.376Z,31.87
2022-08-22T15:54:26.277Z,20.66
2022-08-22T15:55:28.723Z,21.93
2022-08-22T15:56:41.787Z,27.53
2022-08-22T15:58:02.469Z,16.04
2022-08-22T15:59:24.305Z,22.35
2022-08-22T16:00:46.570Z,17.33
2022-08-22T16:03:06.371Z,30.05
2022-08-22T16:04:12.299Z,22.27
2022-08-22T16:05:22.816Z,20.44
2022-08-22T16:06:49.002Z,20.65
2022-08-22T16:08:14.975Z,18.60
2022-08-22T16:09:42.682Z,24.78
2022-08-22T16:10:56.979Z,28.69
2022-08-22T16:12:02.773Z,22.37
2022-08-22T16:13:19.030Z,23.33
2022-08-22T16:14:24.991Z,16.78
2022-08-22T16:15:55.934Z,28.09
2022-08-22T16:17:02.375Z,28.67
2022-08-22T16:18:04.912Z,31.21
2022-08-22T16:19:10.767Z,20.71
2022-08-22T16:20:19.930Z,33.06
2022-08-22T16:21:25.644Z,22.02
2022-08-22T16:22:58.924Z,19.75
2022-08-22T16:24:04.861Z,22.87
2022-08-22T16:25:10.725Z,28.49
2022-08-22T16:26:19.420Z,25.62
2022-08-22T16:27:28.554Z,26.69
2022-08-22T16:28:59.173Z,24.49
2022-08-22T16:30:07.903Z,26.72
2022-08-22T16:31:28.776Z,21.03
2022-08-22T16:32:32.769Z,25.69
2022-08-22T16:33:38.119Z,30.51
2022-08-22T16:34:42.915Z,24.36
2022-08-22T16:36:06.194Z,22.81
2022-08-22T16:37:16.466Z,15.22
2022-08-22T16:38:28.157Z,29.17
2022-08-22T16:39:51.706Z,18.96
2022-08-22T16:40:54.086Z,20.90
2022-08-22T16:42:18.097Z,24.68
2022-08-22T16:43:21.111Z,34.61
2022-08-22T16:44:33.131Z,20.52
2022-08-22T16:45:39.053Z,20.70
2022-08-22T16:46:44.355Z,34.06
2022-08-22T16:47:58.211Z,20.21